sensor_id;sensor_type;location;lat;lon;timestamp;temperature;humidity
69162;DHT22;56269;51.738;21.652;2023-02-28T00:00:22;-4.26;90.96
69162;DHT22;56269;51.738;21.652;2023-02-28T00:03:08;-4.37;90.40
69162;DHT22;56269;51.738;21.652;2023-02-28T00:05:34;-4.40;89.21
69162;DHT22;56269;51.738;21.652;2023-02-28T00:08:00;-4.46;90.73
69162;DHT22;56269;51.738;21.652;2023-02-28T00:10:30;-4.47;91.34
69162;DHT22;56269;51.738;21.652;2023-02-28T00:13:00;-4.46;92.01
69162;DHT22;56269;51.738;21.652;2023-02-28T00:15:27;-4.44;91.14
69162;DHT22;56269;51.738;21.652;2023-02-28T00:17:54;-4.43;91.69
69162;DHT22;56269;51.738;21.652;2023-02-28T00:20:20;-4.42;91.09
69162;DHT22;56269;51.738;21.652;2023-02-28T00:22:49;-4.44;92.88
69162;DHT22;56269;51.738;21.652;2023-02-28T00:25:20;-4.52;92.71
69162;DHT22;56269;51.738;21.652;2023-02-28T00:27:46;-4.52;91.36
69162;DHT22;56269;51.738;21.652;2023-02-28T00:30:18;-4.52;91.61
69162;DHT22;56269;51.738;21.652;2023-02-28T00:32:45;-4.63;90.14
69162;DHT22;56269;51.738;21.652;2023-02-28T00:35:11;-4.68;91.89
69162;DHT22;56269;51.738;21.652;2023-02-28T00:37:38;-4.75;94.77
69162;DHT22;56269;51.738;21.652;2023-02-28T00:40:05;-4.71;94.78
69162;DHT22;56269;51.738;21.652;2023-02-28T00:42:33;-4.71;92.88
69162;DHT22;56269;51.738;21.652;2023-02-28T00:44:59;-4.70;92.64
69162;DHT22;56269;51.738;21.652;2023-02-28T00:47:25;-4.74;93.24
69162;DHT22;56269;51.738;21.652;2023-02-28T00:49:52;-4.77;93.52
69162;DHT22;56269;51.738;21.652;2023-02-28T00:52:18;-4.78;93.30
69162;DHT22;56269;51.738;21.652;2023-02-28T00:54:44;-4.87;92.86
69162;DHT22;56269;51.738;21.652;2023-02-28T00:57:10;-4.89;91.55
69162;DHT22;56269;51.738;21.652;2023-02-28T00:59:37;-4.84;91.18
69162;DHT22;56269;51.738;21.652;2023-02-28T01:02:03;-4.87;92.63
69162;DHT22;56269;51.738;21.652;2023-02-28T01:04:29;-4.95;93.48
69162;DHT22;56269;51.738;21.652;2023-02-28T01:06:55;-4.91;94.03
69162;DHT22;56269;51.738;21.652;2023-02-28T01:09:22;-4.94;95.34
69162;DHT22;56269;51.738;21.652;2023-02-28T01:11:48;-4.94;94.65
69162;DHT22;56269;51.738;21.652;2023-02-28T01:14:16;-4.98;94.29
69162;DHT22;56269;51.738;21.652;2023-02-28T01:16:42;-4.95;93.16
69162;DHT22;56269;51.738;21.652;2023-02-28T01:19:09;-4.97;93.34
69162;DHT22;56269;51.738;21.652;2023-02-28T01:21:35;-4.97;94.13
69162;DHT22;56269;51.738;21.652;2023-02-28T01:24:03;-5.01;94.57
69162;DHT22;56269;51.738;21.652;2023-02-28T01:26:30;-4.95;93.63
69162;DHT22;56269;51.738;21.652;2023-02-28T01:28:56;-5.02;95.57
69162;DHT22;56269;51.738;21.652;2023-02-28T01:31:23;-5.07;96.38
69162;DHT22;56269;51.738;21.652;2023-02-28T01:33:49;-5.12;96.33
69162;DHT22;56269;51.738;21.652;2023-02-28T01:36:21;-5.12;96.58
69162;DHT22;56269;51.738;21.652;2023-02-28T01:38:47;-5.18;96.39
69162;DHT22;56269;51.738;21.652;2023-02-28T01:41:19;-5.22;95.62
69162;DHT22;56269;51.738;21.652;2023-02-28T01:46:12;-5.25;94.47
69162;DHT22;56269;51.738;21.652;2023-02-28T01:49:07;-5.26;96.05
69162;DHT22;56269;51.738;21.652;2023-02-28T01:51:49;-5.29;95.82
69162;DHT22;56269;51.738;21.652;2023-02-28T01:54:29;-5.33;95.83
69162;DHT22;56269;51.738;21.652;2023-02-28T01:59:33;-5.33;95.51
69162;DHT22;56269;51.738;21.652;2023-02-28T02:02:00;-5.30;96.00
69162;DHT22;56269;51.738;21.652;2023-02-28T02:04:34;-5.35;96.59
69162;DHT22;56269;51.738;21.652;2023-02-28T02:07:03;-5.38;96.15
69162;DHT22;56269;51.738;21.652;2023-02-28T02:09:29;-5.35;95.70
69162;DHT22;56269;51.738;21.652;2023-02-28T02:11:56;-5.32;94.25
69162;DHT22;56269;51.738;21.652;2023-02-28T02:15:03;-5.35;94.83
69162;DHT22;56269;51.738;21.652;2023-02-28T02:17:43;-5.40;95.78
69162;DHT22;56269;51.738;21.652;2023-02-28T02:20:37;-5.43;97.06
69162;DHT22;56269;51.738;21.652;2023-02-28T02:34:31;-5.55;97.59
69162;DHT22;56269;51.738;21.652;2023-02-28T02:45:59;-5.74;97.98
69162;DHT22;56269;51.738;21.652;2023-02-28T02:48:31;-5.76;98.13
69162;DHT22;56269;51.738;21.652;2023-02-28T02:51:01;-5.77;98.29
69162;DHT22;56269;51.738;21.652;2023-02-28T02:53:42;-5.81;97.91
69162;DHT22;56269;51.738;21.652;2023-02-28T02:56:09;-5.89;97.03
69162;DHT22;56269;51.738;21.652;2023-02-28T02:58:40;-5.89;97.22
69162;DHT22;56269;51.738;21.652;2023-02-28T03:01:12;-5.84;98.94
69162;DHT22;56269;51.738;21.652;2023-02-28T03:03:40;-5.84;98.98
69162;DHT22;56269;51.738;21.652;2023-02-28T03:06:07;-5.86;99.39
69162;DHT22;56269;51.738;21.652;2023-02-28T03:08:36;-5.87;99.29
69162;DHT22;56269;51.738;21.652;2023-02-28T03:11:05;-5.91;98.12
69162;DHT22;56269;51.738;21.652;2023-02-28T03:21:28;-5.86;97.36
69162;DHT22;56269;51.738;21.652;2023-02-28T03:26:31;-5.91;97.88
69162;DHT22;56269;51.738;21.652;2023-02-28T03:31:48;-5.93;98.16
69162;DHT22;56269;51.738;21.652;2023-02-28T03:34:38;-5.94;98.74
69162;DHT22;56269;51.738;21.652;2023-02-28T03:37:07;-5.98;98.74
69162;DHT22;56269;51.738;21.652;2023-02-28T03:39:43;-5.98;98.55
69162;DHT22;56269;51.738;21.652;2023-02-28T03:42:23;-5.95;98.29
69162;DHT22;56269;51.738;21.652;2023-02-28T03:44:54;-5.98;98.41
69162;DHT22;56269;51.738;21.652;2023-02-28T03:47:27;-6.01;98.85
69162;DHT22;56269;51.738;21.652;2023-02-28T03:55:56;-5.95;98.23
69162;DHT22;56269;51.738;21.652;2023-02-28T03:58:43;-6.05;98.05
69162;DHT22;56269;51.738;21.652;2023-02-28T04:01:19;-6.14;98.68
69162;DHT22;56269;51.738;21.652;2023-02-28T04:03:46;-6.11;98.86
69162;DHT22;56269;51.738;21.652;2023-02-28T04:06:17;-6.11;98.95
69162;DHT22;56269;51.738;21.652;2023-02-28T04:08:44;-6.15;99.06
69162;DHT22;56269;51.738;21.652;2023-02-28T04:11:23;-6.17;99.71
69162;DHT22;56269;51.738;21.652;2023-02-28T04:13:49;-6.20;99.76
69162;DHT22;56269;51.738;21.652;2023-02-28T04:16:16;-6.20;99.41
69162;DHT22;56269;51.738;21.652;2023-02-28T04:18:42;-6.18;99.99
69162;DHT22;56269;51.738;21.652;2023-02-28T04:21:12;-6.20;99.25
69162;DHT22;56269;51.738;21.652;2023-02-28T04:23:39;-6.14;98.99
69162;DHT22;56269;51.738;21.652;2023-02-28T04:26:05;-6.14;99.42
69162;DHT22;56269;51.738;21.652;2023-02-28T04:28:32;-6.14;98.87
69162;DHT22;56269;51.738;21.652;2023-02-28T04:31:03;-6.14;98.48
69162;DHT22;56269;51.738;21.652;2023-02-28T04:33:31;-6.08;98.13
69162;DHT22;56269;51.738;21.652;2023-02-28T04:36:03;-6.15;98.95
69162;DHT22;56269;51.738;21.652;2023-02-28T04:38:33;-6.22;98.75
69162;DHT22;56269;51.738;21.652;2023-02-28T04:41:00;-6.21;98.57
69162;DHT22;56269;51.738;21.652;2023-02-28T04:43:27;-6.22;98.63
69162;DHT22;56269;51.738;21.652;2023-02-28T04:45:55;-6.26;98.51
69162;DHT22;56269;51.738;21.652;2023-02-28T04:48:27;-6.25;98.86
69162;DHT22;56269;51.738;21.652;2023-02-28T04:50:54;-6.26;99.34
69162;DHT22;56269;51.738;21.652;2023-02-28T04:53:21;-6.26;99.29
69162;DHT22;56269;51.738;21.652;2023-02-28T04:55:47;-6.26;98.96
69162;DHT22;56269;51.738;21.652;2023-02-28T04:58:13;-6.29;98.86
69162;DHT22;56269;51.738;21.652;2023-02-28T05:00:40;-6.33;99.43
69162;DHT22;56269;51.738;21.652;2023-02-28T05:03:06;-6.36;99.62
69162;DHT22;56269;51.738;21.652;2023-02-28T05:05:32;-6.32;99.51
69162;DHT22;56269;51.738;21.652;2023-02-28T05:07:59;-6.38;99.18
69162;DHT22;56269;51.738;21.652;2023-02-28T05:10:25;-6.36;99.27
69162;DHT22;56269;51.738;21.652;2023-02-28T05:12:52;-6.35;99.20
69162;DHT22;56269;51.738;21.652;2023-02-28T05:15:18;-6.38;99.13
69162;DHT22;56269;51.738;21.652;2023-02-28T05:17:44;-6.32;99.06
69162;DHT22;56269;51.738;21.652;2023-02-28T05:20:12;-6.41;99.36
69162;DHT22;56269;51.738;21.652;2023-02-28T05:22:40;-6.42;99.50
69162;DHT22;56269;51.738;21.652;2023-02-28T05:25:08;-6.45;99.99
69162;DHT22;56269;51.738;21.652;2023-02-28T05:27:34;-6.42;99.99
69162;DHT22;56269;51.738;21.652;2023-02-28T05:30:00;-6.38;99.99
69162;DHT22;56269;51.738;21.652;2023-02-28T05:32:29;-6.38;99.82
69162;DHT22;56269;51.738;21.652;2023-02-28T05:34:55;-6.39;99.90
69162;DHT22;56269;51.738;21.652;2023-02-28T05:37:21;-6.32;99.93
69162;DHT22;56269;51.738;21.652;2023-02-28T05:39:48;-6.35;99.99
69162;DHT22;56269;51.738;21.652;2023-02-28T05:42:14;-6.29;99.85
69162;DHT22;56269;51.738;21.652;2023-02-28T05:44:40;-6.25;99.90
69162;DHT22;56269;51.738;21.652;2023-02-28T05:47:07;-6.21;99.84
69162;DHT22;56269;51.738;21.652;2023-02-28T05:49:34;-6.15;99.60
69162;DHT22;56269;51.738;21.652;2023-02-28T05:52:00;-6.17;99.24
69162;DHT22;56269;51.738;21.652;2023-02-28T05:54:26;-6.10;99.24
69162;DHT22;56269;51.738;21.652;2023-02-28T05:56:52;-6.05;99.33
69162;DHT22;56269;51.738;21.652;2023-02-28T05:59:19;-6.01;99.44
69162;DHT22;56269;51.738;21.652;2023-02-28T06:01:46;-5.95;98.96
69162;DHT22;56269;51.738;21.652;2023-02-28T06:04:18;-5.87;98.85
69162;DHT22;56269;51.738;21.652;2023-02-28T06:06:48;-5.86;98.59
69162;DHT22;56269;51.738;21.652;2023-02-28T06:09:16;-5.77;98.50
69162;DHT22;56269;51.738;21.652;2023-02-28T06:11:42;-5.74;98.16
69162;DHT22;56269;51.738;21.652;2023-02-28T06:14:15;-5.62;98.28
69162;DHT22;56269;51.738;21.652;2023-02-28T06:16:42;-5.50;97.26
69162;DHT22;56269;51.738;21.652;2023-02-28T06:19:09;-5.36;97.42
69162;DHT22;56269;51.738;21.652;2023-02-28T06:21:36;-5.16;96.49
69162;DHT22;56269;51.738;21.652;2023-02-28T06:24:03;-4.99;96.00
69162;DHT22;56269;51.738;21.652;2023-02-28T06:26:29;-4.77;94.99
69162;DHT22;56269;51.738;21.652;2023-02-28T06:28:56;-4.64;94.18
69162;DHT22;56269;51.738;21.652;2023-02-28T06:31:22;-4.34;94.00
69162;DHT22;56269;51.738;21.652;2023-02-28T06:33:50;-4.13;92.84
69162;DHT22;56269;51.738;21.652;2023-02-28T06:36:17;-3.99;93.28
69162;DHT22;56269;51.738;21.652;2023-02-28T06:38:44;-3.65;91.87
69162;DHT22;56269;51.738;21.652;2023-02-28T06:41:10;-3.29;91.58
69162;DHT22;56269;51.738;21.652;2023-02-28T06:43:39;-3.17;90.63
69162;DHT22;56269;51.738;21.652;2023-02-28T06:46:10;-2.69;90.42
69162;DHT22;56269;51.738;21.652;2023-02-28T06:48:37;-2.55;88.86
69162;DHT22;56269;51.738;21.652;2023-02-28T06:51:14;-2.24;88.24
69162;DHT22;56269;51.738;21.652;2023-02-28T06:53:41;-1.97;86.92
69162;DHT22;56269;51.738;21.652;2023-02-28T06:56:10;-1.83;86.22
69162;DHT22;56269;51.738;21.652;2023-02-28T06:58:38;-1.45;83.42
69162;DHT22;56269;51.738;21.652;2023-02-28T07:01:06;-1.14;80.44
69162;DHT22;56269;51.738;21.652;2023-02-28T07:03:34;-0.88;80.04
69162;DHT22;56269;51.738;21.652;2023-02-28T07:06:00;-0.77;78.20
69162;DHT22;56269;51.738;21.652;2023-02-28T07:08:27;-0.69;78.10
69162;DHT22;56269;51.738;21.652;2023-02-28T07:10:54;-0.25;77.81
69162;DHT22;56269;51.738;21.652;2023-02-28T07:13:22;-0.39;78.41
69162;DHT22;56269;51.738;21.652;2023-02-28T07:16:05;-0.37;74.40
69162;DHT22;56269;51.738;21.652;2023-02-28T07:18:32;0.01;76.80
69162;DHT22;56269;51.738;21.652;2023-02-28T07:20:58;0.18;77.23
69162;DHT22;56269;51.738;21.652;2023-02-28T07:23:24;0.29;74.90
69162;DHT22;56269;51.738;21.652;2023-02-28T07:25:51;0.56;74.45
69162;DHT22;56269;51.738;21.652;2023-02-28T07:28:18;0.73;72.38
69162;DHT22;56269;51.738;21.652;2023-02-28T07:30:44;0.98;72.21
69162;DHT22;56269;51.738;21.652;2023-02-28T07:33:10;0.90;71.37
69162;DHT22;56269;51.738;21.652;2023-02-28T07:35:36;1.11;70.91
69162;DHT22;56269;51.738;21.652;2023-02-28T07:38:03;1.28;70.52
69162;DHT22;56269;51.738;21.652;2023-02-28T07:40:29;1.31;69.02
69162;DHT22;56269;51.738;21.652;2023-02-28T07:42:55;1.30;68.42
69162;DHT22;56269;51.738;21.652;2023-02-28T07:45:21;0.94;68.91
69162;DHT22;56269;51.738;21.652;2023-02-28T07:47:48;1.05;69.66
69162;DHT22;56269;51.738;21.652;2023-02-28T07:50:15;1.01;68.22
69162;DHT22;56269;51.738;21.652;2023-02-28T07:52:42;1.03;69.63
69162;DHT22;56269;51.738;21.652;2023-02-28T07:55:09;1.00;69.10
69162;DHT22;56269;51.738;21.652;2023-02-28T07:57:36;1.31;68.68
69162;DHT22;56269;51.738;21.652;2023-02-28T08:00:06;1.46;68.26
69162;DHT22;56269;51.738;21.652;2023-02-28T08:02:35;1.79;66.08
69162;DHT22;56269;51.738;21.652;2023-02-28T08:05:02;1.67;66.99
69162;DHT22;56269;51.738;21.652;2023-02-28T08:07:28;1.85;63.89
69162;DHT22;56269;51.738;21.652;2023-02-28T08:09:55;2.24;65.51
69162;DHT22;56269;51.738;21.652;2023-02-28T08:12:21;2.47;63.28
69162;DHT22;56269;51.738;21.652;2023-02-28T08:14:47;2.85;61.57
69162;DHT22;56269;51.738;21.652;2023-02-28T08:17:13;2.59;62.96
69162;DHT22;56269;51.738;21.652;2023-02-28T08:19:39;2.51;62.64
69162;DHT22;56269;51.738;21.652;2023-02-28T08:22:06;2.91;64.86
69162;DHT22;56269;51.738;21.652;2023-02-28T08:24:32;3.41;60.90
69162;DHT22;56269;51.738;21.652;2023-02-28T08:26:59;3.53;62.85
69162;DHT22;56269;51.738;21.652;2023-02-28T08:29:25;3.50;60.39
69162;DHT22;56269;51.738;21.652;2023-02-28T08:31:51;3.60;62.34
69162;DHT22;56269;51.738;21.652;2023-02-28T08:34:17;3.30;61.02
69162;DHT22;56269;51.738;21.652;2023-02-28T08:36:44;3.30;61.79
69162;DHT22;56269;51.738;21.652;2023-02-28T08:39:12;2.64;62.64
69162;DHT22;56269;51.738;21.652;2023-02-28T08:41:38;2.89;62.56
69162;DHT22;56269;51.738;21.652;2023-02-28T08:44:05;3.02;59.63
69162;DHT22;56269;51.738;21.652;2023-02-28T08:46:31;3.57;60.62
69162;DHT22;56269;51.738;21.652;2023-02-28T08:48:57;4.28;59.14
69162;DHT22;56269;51.738;21.652;2023-02-28T08:51:26;4.22;59.72
69162;DHT22;56269;51.738;21.652;2023-02-28T08:53:53;3.75;58.96
69162;DHT22;56269;51.738;21.652;2023-02-28T08:56:20;4.22;59.83
69162;DHT22;56269;51.738;21.652;2023-02-28T08:58:48;3.63;58.39
69162;DHT22;56269;51.738;21.652;2023-02-28T09:01:17;3.97;58.05
69162;DHT22;56269;51.738;21.652;2023-02-28T09:03:44;4.04;57.95
69162;DHT22;56269;51.738;21.652;2023-02-28T09:06:13;3.34;60.33
69162;DHT22;56269;51.738;21.652;2023-02-28T09:08:39;2.82;60.42
69162;DHT22;56269;51.738;21.652;2023-02-28T09:11:06;2.96;61.89
69162;DHT22;56269;51.738;21.652;2023-02-28T09:13:33;2.88;60.15
69162;DHT22;56269;51.738;21.652;2023-02-28T09:16:02;3.69;60.91
69162;DHT22;56269;51.738;21.652;2023-02-28T09:18:29;3.30;59.66
69162;DHT22;56269;51.738;21.652;2023-02-28T09:20:57;2.96;60.11
69162;DHT22;56269;51.738;21.652;2023-02-28T09:23:24;3.12;62.72
69162;DHT22;56269;51.738;21.652;2023-02-28T09:25:52;3.06;60.40
69162;DHT22;56269;51.738;21.652;2023-02-28T09:28:19;3.44;59.78
69162;DHT22;56269;51.738;21.652;2023-02-28T09:30:51;3.06;59.88
69162;DHT22;56269;51.738;21.652;2023-02-28T09:33:18;2.89;61.27
69162;DHT22;56269;51.738;21.652;2023-02-28T09:35:48;3.18;61.22
69162;DHT22;56269;51.738;21.652;2023-02-28T09:38:14;3.29;60.70
69162;DHT22;56269;51.738;21.652;2023-02-28T09:40:51;3.67;59.22
69162;DHT22;56269;51.738;21.652;2023-02-28T09:43:21;4.14;60.23
69162;DHT22;56269;51.738;21.652;2023-02-28T09:45:52;4.25;56.79
69162;DHT22;56269;51.738;21.652;2023-02-28T09:48:28;3.50;57.99
69162;DHT22;56269;51.738;21.652;2023-02-28T09:51:00;3.70;60.03
69162;DHT22;56269;51.738;21.652;2023-02-28T09:53:31;3.92;59.80
69162;DHT22;56269;51.738;21.652;2023-02-28T10:06:53;4.28;55.15
69162;DHT22;56269;51.738;21.652;2023-02-28T10:09:24;4.63;57.10
69162;DHT22;56269;51.738;21.652;2023-02-28T10:11:53;4.97;58.27
69162;DHT22;56269;51.738;21.652;2023-02-28T10:14:25;4.79;60.31
69162;DHT22;56269;51.738;21.652;2023-02-28T10:16:56;4.39;56.72
69162;DHT22;56269;51.738;21.652;2023-02-28T10:19:30;4.48;56.88
69162;DHT22;56269;51.738;21.652;2023-02-28T10:22:07;4.36;58.96
69162;DHT22;56269;51.738;21.652;2023-02-28T10:24:41;3.90;60.91
69162;DHT22;56269;51.738;21.652;2023-02-28T10:27:20;3.60;58.77
69162;DHT22;56269;51.738;21.652;2023-02-28T10:29:52;3.95;58.24
69162;DHT22;56269;51.738;21.652;2023-02-28T10:32:34;4.11;58.50
69162;DHT22;56269;51.738;21.652;2023-02-28T10:35:10;4.33;57.99
69162;DHT22;56269;51.738;21.652;2023-02-28T10:37:42;4.25;60.00
69162;DHT22;56269;51.738;21.652;2023-02-28T10:40:30;4.22;58.07
69162;DHT22;56269;51.738;21.652;2023-02-28T10:43:18;4.12;59.18
69162;DHT22;56269;51.738;21.652;2023-02-28T10:51:16;4.11;57.46
69162;DHT22;56269;51.738;21.652;2023-02-28T10:53:51;4.06;59.46
69162;DHT22;56269;51.738;21.652;2023-02-28T10:56:21;3.64;61.62
69162;DHT22;56269;51.738;21.652;2023-02-28T11:01:42;3.75;60.36
69162;DHT22;56269;51.738;21.652;2023-02-28T11:04:19;3.50;59.85
69162;DHT22;56269;51.738;21.652;2023-02-28T11:06:47;4.08;62.13
69162;DHT22;56269;51.738;21.652;2023-02-28T11:09:32;4.35;60.22
69162;DHT22;56269;51.738;21.652;2023-02-28T11:12:02;4.69;56.56
69162;DHT22;56269;51.738;21.652;2023-02-28T11:14:32;4.59;57.99
69162;DHT22;56269;51.738;21.652;2023-02-28T11:17:14;3.47;59.52
69162;DHT22;56269;51.738;21.652;2023-02-28T11:19:46;3.90;57.43
69162;DHT22;56269;51.738;21.652;2023-02-28T11:22:19;4.62;54.82
69162;DHT22;56269;51.738;21.652;2023-02-28T11:24:50;4.81;58.07
69162;DHT22;56269;51.738;21.652;2023-02-28T11:29:51;3.46;57.11
69162;DHT22;56269;51.738;21.652;2023-02-28T11:32:24;3.60;58.41
69162;DHT22;56269;51.738;21.652;2023-02-28T11:35:14;4.63;60.00
69162;DHT22;56269;51.738;21.652;2023-02-28T11:37:42;3.94;57.79
69162;DHT22;56269;51.738;21.652;2023-02-28T11:49:15;5.31;57.27
69162;DHT22;56269;51.738;21.652;2023-02-28T11:54:47;5.47;54.37
69162;DHT22;56269;51.738;21.652;2023-02-28T11:57:22;4.46;54.14
69162;DHT22;56269;51.738;21.652;2023-02-28T12:05:38;3.57;57.61
69162;DHT22;56269;51.738;21.652;2023-02-28T12:08:20;4.04;57.13
69162;DHT22;56269;51.738;21.652;2023-02-28T12:16:34;4.96;53.90
69162;DHT22;56269;51.738;21.652;2023-02-28T12:25:13;4.97;54.42
69162;DHT22;56269;51.738;21.652;2023-02-28T12:27:47;4.91;52.93
69162;DHT22;56269;51.738;21.652;2023-02-28T12:30:30;4.09;58.66
69162;DHT22;56269;51.738;21.652;2023-02-28T12:33:04;4.12;56.54
69162;DHT22;56269;51.738;21.652;2023-02-28T12:35:54;4.22;57.91
69162;DHT22;56269;51.738;21.652;2023-02-28T12:38:36;5.00;54.99
69162;DHT22;56269;51.738;21.652;2023-02-28T12:41:11;3.77;55.50
69162;DHT22;56269;51.738;21.652;2023-02-28T12:43:43;4.53;55.35
69162;DHT22;56269;51.738;21.652;2023-02-28T12:46:32;4.22;58.41
69162;DHT22;56269;51.738;21.652;2023-02-28T12:49:05;4.56;54.02
69162;DHT22;56269;51.738;21.652;2023-02-28T12:51:34;4.57;54.95
69162;DHT22;56269;51.738;21.652;2023-02-28T13:07:58;5.48;56.29
69162;DHT22;56269;51.738;21.652;2023-02-28T13:10:47;4.93;57.64
69162;DHT22;56269;51.738;21.652;2023-02-28T13:13:24;4.65;55.92
69162;DHT22;56269;51.738;21.652;2023-02-28T13:16:03;4.88;55.25
69162;DHT22;56269;51.738;21.652;2023-02-28T13:21:07;5.41;57.29
69162;DHT22;56269;51.738;21.652;2023-02-28T13:26:06;5.42;54.03
69162;DHT22;56269;51.738;21.652;2023-02-28T13:31:15;4.94;56.93
69162;DHT22;56269;51.738;21.652;2023-02-28T13:36:31;5.08;58.22
69162;DHT22;56269;51.738;21.652;2023-02-28T13:38:59;4.59;59.01
69162;DHT22;56269;51.738;21.652;2023-02-28T13:44:11;4.14;60.40
69162;DHT22;56269;51.738;21.652;2023-02-28T14:03:18;4.97;59.26
69162;DHT22;56269;51.738;21.652;2023-02-28T14:05:47;4.80;58.66
69162;DHT22;56269;51.738;21.652;2023-02-28T14:08:20;4.80;55.55
69162;DHT22;56269;51.738;21.652;2023-02-28T14:10:51;4.74;60.92
69162;DHT22;56269;51.738;21.652;2023-02-28T14:13:45;4.65;58.10
69162;DHT22;56269;51.738;21.652;2023-02-28T14:16:20;4.52;56.38
69162;DHT22;56269;51.738;21.652;2023-02-28T14:18:56;4.97;58.25
69162;DHT22;56269;51.738;21.652;2023-02-28T14:21:31;4.74;58.71
69162;DHT22;56269;51.738;21.652;2023-02-28T14:32:22;4.56;57.61
69162;DHT22;56269;51.738;21.652;2023-02-28T14:35:02;4.33;61.05
69162;DHT22;56269;51.738;21.652;2023-02-28T14:37:38;3.98;61.13
69162;DHT22;56269;51.738;21.652;2023-02-28T14:40:16;3.98;62.46
69162;DHT22;56269;51.738;21.652;2023-02-28T14:42:48;3.92;60.62
69162;DHT22;56269;51.738;21.652;2023-02-28T14:45:21;3.75;60.77
69162;DHT22;56269;51.738;21.652;2023-02-28T14:47:50;3.85;65.44
69162;DHT22;56269;51.738;21.652;2023-02-28T14:50:27;3.71;60.51
69162;DHT22;56269;51.738;21.652;2023-02-28T14:52:55;3.81;62.34
69162;DHT22;56269;51.738;21.652;2023-02-28T14:55:26;3.80;63.59
69162;DHT22;56269;51.738;21.652;2023-02-28T14:57:58;3.84;64.25
69162;DHT22;56269;51.738;21.652;2023-02-28T15:00:29;3.63;60.45
69162;DHT22;56269;51.738;21.652;2023-02-28T15:02:57;3.41;61.22
69162;DHT22;56269;51.738;21.652;2023-02-28T15:05:28;3.34;62.06
69162;DHT22;56269;51.738;21.652;2023-02-28T15:08:22;3.19;62.06
69162;DHT22;56269;51.738;21.652;2023-02-28T15:11:08;3.00;61.79
69162;DHT22;56269;51.738;21.652;2023-02-28T15:13:44;2.95;64.74
69162;DHT22;56269;51.738;21.652;2023-02-28T15:18:50;2.49;64.72
69162;DHT22;56269;51.738;21.652;2023-02-28T15:21:24;2.38;64.83
69162;DHT22;56269;51.738;21.652;2023-02-28T15:23:55;2.23;66.06
69162;DHT22;56269;51.738;21.652;2023-02-28T15:26:27;2.11;67.43
69162;DHT22;56269;51.738;21.652;2023-02-28T15:29:06;2.07;68.02
69162;DHT22;56269;51.738;21.652;2023-02-28T15:31:37;1.99;67.08
69162;DHT22;56269;51.738;21.652;2023-02-28T15:34:19;1.97;70.86
69162;DHT22;56269;51.738;21.652;2023-02-28T15:36:46;1.83;67.72
69162;DHT22;56269;51.738;21.652;2023-02-28T15:39:41;1.67;67.63
69162;DHT22;56269;51.738;21.652;2023-02-28T15:42:12;1.58;67.16
69162;DHT22;56269;51.738;21.652;2023-02-28T15:44:39;1.39;70.71
69162;DHT22;56269;51.738;21.652;2023-02-28T15:47:17;1.24;71.73
69162;DHT22;56269;51.738;21.652;2023-02-28T15:49:57;1.13;71.60
69162;DHT22;56269;51.738;21.652;2023-02-28T15:52:49;0.95;72.51
69162;DHT22;56269;51.738;21.652;2023-02-28T15:55:20;0.80;72.10
69162;DHT22;56269;51.738;21.652;2023-02-28T15:57:52;0.66;71.94
69162;DHT22;56269;51.738;21.652;2023-02-28T16:00:22;0.39;76.35
69162;DHT22;56269;51.738;21.652;2023-02-28T16:02:49;0.18;76.15
69162;DHT22;56269;51.738;21.652;2023-02-28T16:05:29;-0.01;78.66
69162;DHT22;56269;51.738;21.652;2023-02-28T16:07:59;-0.20;83.66
69162;DHT22;56269;51.738;21.652;2023-02-28T16:10:27;-0.42;83.43
69162;DHT22;56269;51.738;21.652;2023-02-28T16:12:55;-0.57;83.76
69162;DHT22;56269;51.738;21.652;2023-02-28T16:15:27;-0.71;84.52
69162;DHT22;56269;51.738;21.652;2023-02-28T16:17:54;-0.88;83.77
69162;DHT22;56269;51.738;21.652;2023-02-28T16:20:28;-1.02;83.00
69162;DHT22;56269;51.738;21.652;2023-02-28T16:22:55;-1.18;87.39
69162;DHT22;56269;51.738;21.652;2023-02-28T16:25:39;-1.38;86.20
69162;DHT22;56269;51.738;21.652;2023-02-28T16:28:28;-1.46;88.15
69162;DHT22;56269;51.738;21.652;2023-02-28T16:31:03;-1.49;88.72
69162;DHT22;56269;51.738;21.652;2023-02-28T16:33:31;-1.59;88.17
69162;DHT22;56269;51.738;21.652;2023-02-28T16:35:57;-1.75;85.68
69162;DHT22;56269;51.738;21.652;2023-02-28T16:38:24;-1.80;85.07
69162;DHT22;56269;51.738;21.652;2023-02-28T16:40:51;-1.80;84.22
69162;DHT22;56269;51.738;21.652;2023-02-28T16:43:22;-1.96;86.56
69162;DHT22;56269;51.738;21.652;2023-02-28T16:45:55;-1.90;85.17
69162;DHT22;56269;51.738;21.652;2023-02-28T16:48:22;-1.96;86.69
69162;DHT22;56269;51.738;21.652;2023-02-28T16:50:48;-1.93;87.47
69162;DHT22;56269;51.738;21.652;2023-02-28T16:53:14;-2.01;85.99
69162;DHT22;56269;51.738;21.652;2023-02-28T16:55:41;-2.07;84.74
69162;DHT22;56269;51.738;21.652;2023-02-28T16:58:14;-2.14;83.48
69162;DHT22;56269;51.738;21.652;2023-02-28T17:00:41;-2.27;85.80
69162;DHT22;56269;51.738;21.652;2023-02-28T17:03:24;-2.30;89.99
69162;DHT22;56269;51.738;21.652;2023-02-28T17:05:51;-2.37;90.59
69162;DHT22;56269;51.738;21.652;2023-02-28T17:08:18;-2.38;89.42
69162;DHT22;56269;51.738;21.652;2023-02-28T17:10:45;-2.41;89.58
69162;DHT22;56269;51.738;21.652;2023-02-28T17:13:11;-2.42;90.34
69162;DHT22;56269;51.738;21.652;2023-02-28T17:15:39;-2.28;91.98
69162;DHT22;56269;51.738;21.652;2023-02-28T17:18:08;-2.37;92.12
69162;DHT22;56269;51.738;21.652;2023-02-28T17:20:36;-2.42;92.50
69162;DHT22;56269;51.738;21.652;2023-02-28T17:23:02;-2.45;92.74
69162;DHT22;56269;51.738;21.652;2023-02-28T17:25:30;-2.54;94.14
69162;DHT22;56269;51.738;21.652;2023-02-28T17:27:56;-2.59;93.64
69162;DHT22;56269;51.738;21.652;2023-02-28T17:30:25;-2.65;91.05
69162;DHT22;56269;51.738;21.652;2023-02-28T17:32:56;-2.66;90.09
69162;DHT22;56269;51.738;21.652;2023-02-28T17:35:23;-2.70;90.31
69162;DHT22;56269;51.738;21.652;2023-02-28T17:37:52;-2.69;91.87
69162;DHT22;56269;51.738;21.652;2023-02-28T17:40:23;-2.75;92.87
69162;DHT22;56269;51.738;21.652;2023-02-28T17:42:50;-2.76;92.28
69162;DHT22;56269;51.738;21.652;2023-02-28T17:45:21;-2.58;93.07
69162;DHT22;56269;51.738;21.652;2023-02-28T17:47:49;-2.49;92.43
69162;DHT22;56269;51.738;21.652;2023-02-28T17:50:20;-2.40;89.34
69162;DHT22;56269;51.738;21.652;2023-02-28T17:52:47;-2.42;91.54
69162;DHT22;56269;51.738;21.652;2023-02-28T17:55:15;-2.41;91.58
69162;DHT22;56269;51.738;21.652;2023-02-28T17:57:41;-2.45;92.45
69162;DHT22;56269;51.738;21.652;2023-02-28T18:00:11;-2.62;94.57
69162;DHT22;56269;51.738;21.652;2023-02-28T18:02:39;-2.70;91.81
69162;DHT22;56269;51.738;21.652;2023-02-28T18:05:07;-2.72;91.83
69162;DHT22;56269;51.738;21.652;2023-02-28T18:07:36;-2.86;93.10
69162;DHT22;56269;51.738;21.652;2023-02-28T18:10:03;-2.95;92.46
69162;DHT22;56269;51.738;21.652;2023-02-28T18:12:31;-3.00;92.88